createdAt,value
2022-12-18T00:02:01.052Z,5.43
2022-12-18T00:04:48.826Z,5.47
2022-12-18T00:07:37.366Z,4.97
2022-12-18T00:10:22.426Z,3.72
2022-12-18T00:12:53.242Z,5.28
2022-12-18T00:15:21.997Z,5.05
2022-12-18T00:17:52.344Z,5.55
2022-12-18T00:20:26.520Z,6.68
2022-12-18T00:23:00.182Z,5.68
2022-12-18T00:25:29.366Z,5.78
2022-12-18T00:27:58.141Z,6.78
2022-12-18T00:30:27.320Z,4.82
2022-12-18T00:33:18.086Z,2.40
2022-12-18T00:36:11.717Z,5.63
2022-12-18T00:39:00.040Z,5.35
2022-12-18T00:42:05.261Z,5.93
2022-12-18T00:44:52.885Z,5.47
2022-12-18T00:47:26.940Z,7.35
2022-12-18T00:50:14.619Z,6.65
2022-12-18T00:53:02.677Z,3.15
2022-12-18T00:55:52.835Z,5.10
2022-12-18T00:58:21.504Z,5.10
2022-12-18T01:00:51.970Z,6.85
2022-12-18T01:03:41.349Z,5.75
2022-12-18T01:06:13.941Z,7.05
2022-12-18T01:08:47.839Z,5.97
2022-12-18T01:11:18.035Z,4.95
2022-12-18T01:13:46.779Z,4.90
2022-12-18T01:16:16.698Z,6.43
2022-12-18T01:18:46.388Z,6.07
2022-12-18T01:21:34.872Z,5.40
2022-12-18T01:24:27.821Z,4.40
2022-12-18T01:27:15.668Z,6.72
2022-12-18T01:30:06.277Z,5.07
2022-12-18T01:32:53.971Z,3.75
2022-12-18T01:38:24.813Z,4.82
2022-12-18T01:41:12.585Z,5.32
2022-12-18T01:44:00.300Z,4.43
2022-12-18T01:46:50.165Z,5.00
2022-12-18T01:49:19.526Z,6.35
2022-12-18T01:51:53.802Z,5.47
2022-12-18T01:54:23.021Z,6.22
2022-12-18T01:57:04.645Z,5.40
2022-12-18T01:59:46.362Z,5.90
2022-12-18T02:02:31.002Z,3.03
2022-12-18T02:05:20.955Z,6.35
2022-12-18T02:08:07.260Z,5.88
2022-12-18T02:11:06.544Z,3.55
2022-12-18T02:13:56.847Z,6.25
2022-12-18T02:16:48.884Z,6.15
2022-12-18T02:19:36.453Z,5.17
2022-12-18T02:22:14.428Z,6.47
2022-12-18T02:24:52.187Z,5.93
2022-12-18T02:27:21.155Z,4.47
2022-12-18T02:29:57.984Z,5.20
2022-12-18T02:32:38.559Z,5.55
2022-12-18T02:35:08.310Z,5.93
2022-12-18T02:37:41.173Z,4.93
2022-12-18T02:40:10.395Z,7.00
2022-12-18T02:42:41.416Z,5.82
2022-12-18T02:45:14.400Z,4.25
2022-12-18T02:47:47.981Z,5.50
2022-12-18T02:50:19.748Z,4.45
2022-12-18T02:52:55.080Z,5.60
2022-12-18T02:55:42.546Z,5.72
2022-12-18T02:58:26.726Z,6.93
2022-12-18T03:00:58.507Z,4.97
2022-12-18T03:03:37.906Z,4.65
2022-12-18T03:06:10.709Z,6.70
2022-12-18T03:08:44.695Z,6.55
2022-12-18T03:11:14.248Z,6.03
2022-12-18T03:13:54.633Z,5.55
2022-12-18T03:16:36.634Z,5.43
2022-12-18T03:19:23.653Z,3.33
2022-12-18T03:21:59.008Z,5.32
2022-12-18T03:24:41.065Z,4.93
2022-12-18T03:27:15.933Z,5.22
2022-12-18T03:30:08.399Z,5.55
2022-12-18T03:33:00.274Z,6.45
2022-12-18T03:35:34.401Z,6.00
2022-12-18T03:38:20.630Z,5.40
2022-12-18T03:40:52.946Z,6.30
2022-12-18T03:43:28.553Z,5.28
2022-12-18T03:46:05.162Z,5.30
2022-12-18T03:48:50.153Z,5.25
2022-12-18T03:51:39.575Z,5.65
2022-12-18T03:54:12.075Z,4.78
2022-12-18T03:56:53.125Z,5.18
2022-12-18T03:59:24.261Z,4.93
2022-12-18T04:01:54.309Z,4.90
2022-12-18T04:04:25.335Z,4.15
2022-12-18T04:06:57.293Z,5.38
2022-12-18T04:09:27.770Z,5.00
2022-12-18T04:11:56.472Z,4.53
2022-12-18T04:14:25.677Z,5.55
2022-12-18T04:17:01.922Z,5.05
2022-12-18T04:19:53.411Z,4.68
2022-12-18T04:22:24.674Z,5.32
2022-12-18T04:24:59.317Z,5.68
2022-12-18T04:27:38.154Z,4.30
2022-12-18T04:33:12.726Z,4.88
2022-12-18T04:36:00.521Z,4.15
2022-12-18T04:38:47.613Z,4.80
2022-12-18T04:41:19.209Z,3.45
2022-12-18T04:43:51.404Z,4.20
2022-12-18T04:46:19.757Z,3.88
2022-12-18T04:48:50.771Z,4.45
2022-12-18T04:51:26.335Z,4.97
2022-12-18T04:54:14.533Z,4.10
2022-12-18T04:57:02.223Z,4.10
2022-12-18T04:59:45.246Z,3.00
2022-12-18T05:02:18.288Z,4.32
2022-12-18T05:05:01.578Z,3.97
2022-12-18T05:07:49.240Z,3.95
2022-12-18T05:10:39.083Z,3.67
2022-12-18T05:13:26.676Z,4.38
2022-12-18T05:15:57.200Z,3.90
2022-12-18T05:18:44.903Z,3.40
2022-12-18T05:21:25.292Z,3.33
2022-12-18T05:24:10.288Z,3.28
2022-12-18T05:26:39.736Z,3.55
2022-12-18T05:29:13.145Z,3.00
2022-12-18T05:31:44.453Z,3.10
2022-12-18T05:34:13.657Z,3.78
2022-12-18T05:36:42.838Z,3.85
2022-12-18T05:39:11.768Z,3.25
2022-12-18T05:41:41.206Z,2.90
2022-12-18T05:44:13.106Z,2.60
2022-12-18T05:46:41.399Z,2.90
2022-12-18T05:49:13.006Z,2.40
2022-12-18T05:51:41.800Z,3.50
2022-12-18T05:54:14.381Z,2.60
2022-12-18T05:56:48.481Z,2.95
2022-12-18T05:59:18.628Z,3.40
2022-12-18T06:01:52.549Z,3.05
2022-12-18T06:04:21.029Z,3.55
2022-12-18T06:06:49.881Z,3.20
2022-12-18T06:09:20.631Z,3.63
2022-12-18T06:12:08.460Z,3.17
2022-12-18T06:14:56.057Z,3.30
2022-12-18T06:17:43.644Z,3.30
2022-12-18T06:20:34.124Z,3.08
2022-12-18T06:23:20.652Z,4.05
2022-12-18T06:26:15.767Z,3.00
2022-12-18T06:29:05.621Z,3.67
2022-12-18T06:31:55.800Z,4.18
2022-12-18T06:34:44.209Z,3.90
2022-12-18T06:37:34.394Z,3.33
2022-12-18T06:40:21.950Z,3.22
2022-12-18T06:42:55.836Z,2.90
2022-12-18T06:45:27.996Z,3.22
2022-12-18T06:47:58.833Z,3.50
2022-12-18T06:50:31.669Z,3.13
2022-12-18T06:53:19.748Z,3.97
2022-12-18T06:56:10.732Z,3.95
2022-12-18T06:59:01.021Z,3.42
2022-12-18T07:01:48.744Z,2.72
2022-12-18T07:04:33.341Z,3.63
2022-12-18T07:07:21.104Z,3.25
2022-12-18T07:10:08.805Z,2.47
2022-12-18T07:12:54.490Z,3.55
2022-12-18T07:15:24.046Z,2.90
2022-12-18T07:17:56.906Z,3.67
2022-12-18T07:20:30.411Z,4.15
2022-12-18T07:22:59.732Z,2.72
2022-12-18T07:25:47.038Z,3.50
2022-12-18T07:28:34.010Z,4.38
2022-12-18T07:31:22.766Z,2.65
2022-12-18T07:34:13.740Z,2.30
2022-12-18T07:36:42.681Z,4.00
2022-12-18T07:39:14.598Z,2.90
2022-12-18T07:42:07.699Z,3.50
2022-12-18T07:44:36.731Z,4.18
2022-12-18T07:47:20.887Z,3.60
2022-12-18T07:50:05.551Z,3.30
2022-12-18T07:52:53.102Z,3.22
2022-12-18T07:55:54.703Z,3.72
2022-12-18T07:58:25.839Z,0.95
2022-12-18T08:00:54.993Z,4.15
2022-12-18T08:03:35.089Z,3.20
2022-12-18T08:06:04.672Z,3.58
2022-12-18T08:08:33.692Z,3.60
2022-12-18T08:11:04.534Z,4.18
2022-12-18T08:13:36.079Z,3.78
2022-12-18T08:16:08.243Z,4.55
2022-12-18T08:18:39.258Z,4.30
2022-12-18T08:21:30.142Z,4.22
2022-12-18T08:24:17.760Z,2.20
2022-12-18T08:30:09.293Z,3.05
2022-12-18T08:32:56.919Z,1.70
2022-12-18T08:35:29.560Z,4.50
2022-12-18T08:38:02.434Z,4.72
2022-12-18T08:40:33.298Z,4.45
2022-12-18T08:43:19.424Z,2.83
2022-12-18T08:45:48.019Z,4.65
2022-12-18T08:48:21.974Z,3.20
2022-12-18T08:51:01.670Z,4.63
2022-12-18T08:53:36.140Z,4.97
2022-12-18T08:56:07.266Z,2.88
2022-12-18T08:58:37.250Z,4.32
2022-12-18T09:01:25.174Z,4.25
2022-12-18T09:04:13.355Z,3.10
2022-12-18T09:07:00.975Z,3.30
2022-12-18T09:09:48.607Z,3.50
2022-12-18T09:12:36.261Z,3.33
2022-12-18T09:15:04.877Z,3.70
2022-12-18T09:17:35.531Z,3.80
2022-12-18T09:20:07.343Z,4.50
2022-12-18T09:22:39.586Z,3.78
2022-12-18T09:25:08.930Z,4.65
2022-12-18T09:27:40.271Z,4.43
2022-12-18T09:30:09.931Z,4.53
2022-12-18T09:32:59.990Z,3.35
2022-12-18T09:35:29.801Z,4.68
2022-12-18T09:37:58.206Z,2.25
2022-12-18T09:40:33.491Z,4.50
2022-12-18T09:43:35.100Z,4.70
2022-12-18T09:46:06.962Z,4.32
2022-12-18T09:48:40.727Z,3.70
2022-12-18T09:51:29.636Z,4.10
2022-12-18T09:54:05.174Z,4.95
2022-12-18T09:56:37.675Z,4.82
2022-12-18T09:59:07.267Z,4.10
2022-12-18T10:01:44.026Z,4.30
2022-12-18T10:04:33.454Z,1.88
2022-12-18T10:07:45.675Z,4.38
2022-12-18T10:10:14.772Z,4.60
2022-12-18T10:13:07.584Z,3.57
2022-12-18T10:15:40.567Z,3.88
2022-12-18T10:18:24.368Z,3.95
2022-12-18T10:21:02.078Z,2.40
2022-12-18T10:23:43.589Z,3.97
2022-12-18T10:26:14.809Z,3.80
2022-12-18T10:28:43.773Z,4.15
2022-12-18T10:31:19.240Z,3.80
2022-12-18T10:33:48.037Z,4.20
2022-12-18T10:36:17.209Z,4.47
2022-12-18T10:38:49.173Z,4.38
2022-12-18T10:41:26.686Z,4.65
2022-12-18T10:44:12.762Z,4.43
2022-12-18T10:47:08.749Z,4.50
2022-12-18T10:49:42.929Z,4.60
2022-12-18T10:52:19.442Z,4.65
2022-12-18T10:54:56.739Z,5.00
2022-12-18T10:57:39.581Z,5.60
2022-12-18T11:00:31.836Z,4.72
2022-12-18T11:03:31.292Z,4.88
2022-12-18T11:06:22.674Z,4.97
2022-12-18T11:08:59.910Z,4.25
2022-12-18T11:11:28.321Z,4.65
2022-12-18T11:14:06.889Z,5.45
2022-12-18T11:16:39.318Z,5.00
2022-12-18T11:19:30.233Z,3.88
2022-12-18T11:21:59.811Z,5.57
2022-12-18T11:24:30.834Z,5.55
2022-12-18T11:27:04.907Z,4.50
2022-12-18T11:29:52.786Z,3.97
2022-12-18T11:32:47.124Z,5.45
2022-12-18T11:35:39.168Z,5.00
2022-12-18T11:38:27.091Z,5.90
2022-12-18T11:41:09.319Z,4.90
2022-12-18T11:43:40.931Z,4.78
2022-12-18T11:46:19.174Z,4.22
2022-12-18T11:49:03.431Z,6.15
2022-12-18T11:51:45.631Z,5.68
2022-12-18T11:54:15.530Z,5.50
2022-12-18T11:56:52.886Z,5.45
2022-12-18T11:59:32.533Z,6.35
2022-12-18T12:02:19.780Z,3.38
2022-12-18T12:04:57.208Z,5.85
2022-12-18T12:07:45.377Z,4.70
2022-12-18T12:10:39.551Z,3.75
2022-12-18T12:13:20.079Z,5.72
2022-12-18T12:16:01.300Z,6.90
2022-12-18T12:18:30.024Z,5.45
2022-12-18T12:21:05.893Z,4.20
2022-12-18T12:23:46.924Z,4.88
2022-12-18T12:26:21.023Z,6.68
2022-12-18T12:28:53.447Z,6.35
2022-12-18T12:31:42.355Z,5.95
2022-12-18T12:34:19.493Z,5.15
2022-12-18T12:36:52.866Z,4.68
2022-12-18T12:39:24.537Z,5.80
2022-12-18T12:42:09.613Z,5.05
2022-12-18T12:44:54.228Z,5.35
2022-12-18T12:47:36.301Z,3.50
2022-12-18T12:50:18.668Z,5.35
2022-12-18T12:53:08.007Z,5.13
2022-12-18T12:55:49.335Z,6.28
2022-12-18T12:58:46.414Z,6.38
2022-12-18T13:01:33.424Z,7.20
2022-12-18T13:04:30.619Z,6.18
2022-12-18T13:07:18.310Z,6.00
2022-12-18T13:10:05.505Z,5.10
2022-12-18T13:12:53.683Z,4.85
2022-12-18T13:15:42.560Z,8.30
2022-12-18T13:18:30.067Z,7.13
2022-12-18T13:21:10.120Z,4.75
2022-12-18T13:23:49.204Z,7.82
2022-12-18T13:26:34.004Z,4.88
2022-12-18T13:29:02.962Z,8.70
2022-12-18T13:31:31.906Z,8.40
2022-12-18T13:34:31.168Z,5.85
2022-12-18T13:37:19.770Z,7.63
2022-12-18T13:39:48.194Z,7.13
2022-12-18T13:42:30.630Z,6.30
2022-12-18T13:44:59.816Z,4.78
2022-12-18T13:47:36.771Z,9.32
2022-12-18T13:50:20.207Z,4.63
2022-12-18T13:52:52.482Z,8.88
2022-12-18T13:55:21.618Z,9.48
2022-12-18T13:58:04.787Z,8.43
2022-12-18T14:00:52.571Z,6.07
2022-12-18T14:03:43.339Z,6.30
2022-12-18T14:06:33.771Z,8.55
2022-12-18T14:09:21.401Z,8.60
2022-12-18T14:12:34.267Z,10.60
2022-12-18T14:15:28.081Z,6.05
2022-12-18T14:18:18.747Z,12.07
2022-12-18T14:21:08.923Z,9.55
2022-12-18T14:23:43.793Z,9.80
2022-12-18T14:26:23.570Z,9.18
2022-12-18T14:28:52.258Z,8.40
2022-12-18T14:31:22.993Z,5.82
2022-12-18T14:33:51.660Z,10.70
2022-12-18T14:36:23.374Z,7.32
2022-12-18T14:38:56.409Z,9.07
2022-12-18T14:41:26.598Z,6.60
2022-12-18T14:44:08.135Z,6.57
2022-12-18T14:46:52.422Z,8.05
2022-12-18T14:49:43.562Z,6.45
2022-12-18T14:52:36.023Z,6.65
2022-12-18T14:55:29.245Z,10.95
2022-12-18T14:58:15.932Z,8.50
2022-12-18T15:01:03.710Z,11.32
2022-12-18T15:03:52.503Z,6.57
2022-12-18T15:06:40.867Z,11.00
2022-12-18T15:09:24.891Z,11.48
2022-12-18T15:12:00.505Z,8.77
2022-12-18T15:14:31.956Z,9.02
2022-12-18T15:17:01.561Z,9.68
2022-12-18T15:19:43.124Z,10.57
2022-12-18T15:22:31.103Z,6.30
2022-12-18T15:25:00.717Z,9.55
2022-12-18T15:27:49.150Z,8.02
2022-12-18T15:30:36.381Z,9.63
2022-12-18T15:33:32.569Z,6.95
2022-12-18T15:36:15.953Z,9.43
2022-12-18T15:38:50.445Z,9.07
2022-12-18T15:41:24.539Z,9.02
2022-12-18T15:43:53.310Z,10.65
2022-12-18T15:46:26.318Z,12.43
2022-12-18T15:49:11.186Z,8.73
2022-12-18T15:51:58.490Z,7.68
2022-12-18T15:55:03.770Z,10.60
2022-12-18T15:57:54.044Z,13.40
2022-12-18T16:00:40.902Z,9.10
2022-12-18T16:03:28.778Z,10.75
2022-12-18T16:06:16.539Z,11.70
2022-12-18T16:09:07.110Z,12.07
2022-12-18T16:11:41.806Z,11.93
2022-12-18T16:14:32.356Z,10.15
2022-12-18T16:17:02.500Z,7.63
2022-12-18T16:19:32.124Z,8.27
2022-12-18T16:22:26.435Z,11.60
2022-12-18T16:25:19.600Z,9.82
2022-12-18T16:28:09.567Z,9.00
2022-12-18T16:30:57.241Z,12.27
2022-12-18T16:33:45.204Z,13.15
2022-12-18T16:36:32.961Z,10.48
2022-12-18T16:39:20.981Z,8.95
2022-12-18T16:42:13.503Z,8.55
2022-12-18T16:44:53.541Z,10.45
2022-12-18T16:47:41.720Z,13.82
2022-12-18T16:50:19.094Z,14.32
2022-12-18T16:53:06.717Z,14.23
2022-12-18T16:55:36.181Z,11.43
2022-12-18T16:58:07.958Z,12.68
2022-12-18T17:00:36.370Z,11.32
2022-12-18T17:03:26.662Z,12.10
2022-12-18T17:06:16.842Z,14.70
2022-12-18T17:09:07.518Z,14.50
2022-12-18T17:11:55.322Z,13.52
2022-12-18T17:14:42.937Z,13.65
2022-12-18T17:17:27.180Z,11.43
2022-12-18T17:19:55.780Z,13.63
2022-12-18T17:22:24.141Z,10.88
2022-12-18T17:24:54.029Z,8.77
2022-12-18T17:27:41.733Z,17.20
2022-12-18T17:30:30.560Z,11.13
2022-12-18T17:33:11.377Z,13.45
2022-12-18T17:35:59.604Z,14.68
2022-12-18T17:38:29.119Z,14.98
2022-12-18T17:41:03.750Z,9.57
2022-12-18T17:43:35.510Z,8.63
2022-12-18T17:46:13.820Z,16.42
2022-12-18T17:48:44.972Z,12.13
2022-12-18T17:51:14.624Z,11.68
2022-12-18T17:53:44.414Z,13.65
2022-12-18T17:56:15.145Z,9.25
2022-12-18T17:58:44.030Z,10.65
2022-12-18T18:01:31.992Z,11.75
2022-12-18T18:04:22.585Z,15.32
2022-12-18T18:07:10.409Z,13.40
2022-12-18T18:09:52.966Z,12.07
2022-12-18T18:13:00.771Z,12.38
2022-12-18T18:15:56.104Z,15.05
2022-12-18T18:18:43.691Z,14.40
2022-12-18T18:21:20.555Z,15.60
2022-12-18T18:23:51.050Z,11.70
2022-12-18T18:26:22.258Z,16.92
2022-12-18T18:28:56.575Z,12.25
2022-12-18T18:31:29.421Z,13.80
2022-12-18T18:34:18.754Z,11.18
2022-12-18T18:37:06.946Z,11.20
2022-12-18T18:39:56.217Z,11.95
2022-12-18T18:42:43.864Z,16.88
2022-12-18T18:45:15.630Z,18.67
2022-12-18T18:47:50.046Z,10.13
2022-12-18T18:50:22.447Z,11.85
2022-12-18T18:53:00.697Z,12.43
2022-12-18T18:56:03.992Z,16.25
2022-12-18T18:58:56.615Z,14.40
2022-12-18T19:01:44.745Z,15.93
2022-12-18T19:04:33.553Z,10.15
2022-12-18T19:07:30.894Z,9.40
2022-12-18T19:10:21.458Z,16.92
2022-12-18T19:13:24.399Z,14.93
2022-12-18T19:16:12.060Z,11.45
2022-12-18T19:18:41.668Z,12.70
2022-12-18T19:21:14.758Z,16.10
2022-12-18T19:23:47.226Z,13.05
2022-12-18T19:26:27.603Z,11.23
2022-12-18T19:29:16.014Z,10.98
2022-12-18T19:32:03.933Z,10.07
2022-12-18T19:34:51.606Z,12.93
2022-12-18T19:37:35.406Z,11.18
2022-12-18T19:40:20.207Z,14.98
2022-12-18T19:43:07.853Z,12.35
2022-12-18T19:45:56.413Z,14.70
2022-12-18T19:48:45.297Z,9.18
2022-12-18T19:51:19.185Z,11.75
2022-12-18T19:53:54.951Z,18.02
2022-12-18T19:56:27.130Z,17.63
2022-12-18T19:58:56.565Z,16.10
2022-12-18T20:01:47.599Z,11.60
2022-12-18T20:04:35.357Z,13.65
2022-12-18T20:07:16.623Z,16.30
2022-12-18T20:10:08.871Z,10.40
2022-12-18T20:12:56.874Z,12.02
2022-12-18T20:15:45.711Z,13.82
2022-12-18T20:18:33.346Z,11.30
2022-12-18T20:21:21.199Z,14.10
2022-12-18T20:24:09.255Z,14.63
2022-12-18T20:26:56.940Z,13.00
2022-12-18T20:29:44.643Z,13.85
2022-12-18T20:32:36.955Z,14.38
2022-12-18T20:35:12.715Z,17.83
2022-12-18T20:38:03.234Z,13.38
2022-12-18T20:40:52.590Z,11.95
2022-12-18T20:43:43.315Z,11.40
2022-12-18T20:46:16.526Z,12.32
2022-12-18T20:49:06.966Z,12.93
2022-12-18T20:51:56.098Z,11.65
2022-12-18T20:54:40.494Z,12.57
2022-12-18T20:57:11.395Z,20.42
2022-12-18T20:59:47.982Z,18.45
2022-12-18T21:02:20.763Z,18.27
2022-12-18T21:04:50.398Z,13.07
2022-12-18T21:07:24.028Z,12.50
2022-12-18T21:09:52.339Z,18.02
2022-12-18T21:12:58.796Z,12.43
2022-12-18T21:15:33.668Z,13.50
2022-12-18T21:18:16.678Z,11.68
2022-12-18T21:21:06.496Z,14.52
2022-12-18T21:23:55.451Z,13.80
2022-12-18T21:26:45.843Z,16.88
2022-12-18T21:29:17.869Z,11.02
2022-12-18T21:31:54.456Z,16.23
2022-12-18T21:34:26.218Z,17.83
2022-12-18T21:36:55.240Z,13.23
2022-12-18T21:39:38.128Z,16.15
2022-12-18T21:42:58.260Z,14.45
2022-12-18T21:45:45.898Z,16.23
2022-12-18T21:48:38.354Z,10.23
2022-12-18T21:51:25.966Z,16.83
2022-12-18T21:54:13.560Z,10.20
2022-12-18T21:57:05.292Z,19.50
2022-12-18T21:59:55.461Z,13.40
2022-12-18T22:02:24.891Z,13.50
2022-12-18T22:04:53.776Z,17.60
2022-12-18T22:07:22.744Z,21.05
2022-12-18T22:09:51.675Z,18.10
2022-12-18T22:15:14.780Z,17.08
2022-12-18T22:18:09.639Z,13.27
2022-12-18T22:21:04.037Z,20.95
2022-12-18T22:23:58.889Z,15.00
2022-12-18T22:26:47.033Z,12.68
2022-12-18T22:29:52.350Z,15.88
2022-12-18T22:32:31.482Z,12.15
2022-12-18T22:35:07.264Z,13.88
2022-12-18T22:37:43.462Z,16.25
2022-12-18T22:40:31.124Z,13.55
2022-12-18T22:43:18.796Z,13.65
2022-12-18T22:46:06.578Z,15.60
2022-12-18T22:48:56.867Z,15.60
2022-12-18T22:51:45.083Z,18.17
2022-12-18T22:54:32.941Z,14.13
2022-12-18T22:57:20.598Z,16.25
2022-12-18T23:00:08.692Z,7.68
2022-12-18T23:02:48.495Z,12.68
2022-12-18T23:05:19.291Z,15.25
2022-12-18T23:07:47.976Z,18.42
2022-12-18T23:10:16.593Z,18.13
2022-12-18T23:13:04.361Z,14.38
2022-12-18T23:15:52.135Z,16.35
2022-12-18T23:18:42.657Z,15.25
2022-12-18T23:21:30.327Z,15.43
2022-12-18T23:24:18.319Z,20.08
2022-12-18T23:27:09.394Z,17.20
2022-12-18T23:29:59.662Z,16.50
2022-12-18T23:32:49.737Z,15.73
2022-12-18T23:35:37.427Z,17.52
2022-12-18T23:38:24.386Z,12.27
2022-12-18T23:40:56.540Z,16.77
2022-12-18T23:43:42.889Z,21.23
2022-12-18T23:46:24.880Z,13.30
2022-12-18T23:51:55.802Z,12.30
2022-12-18T23:54:32.762Z,17.67
2022-12-18T23:57:02.596Z,22.88
2022-12-18T23:59:33.539Z,7.45
